sensor_id;sensor_type;location;lat;lon;timestamp;pressure;altitude;pressure_sealevel;temperature;humidity
5996;BME280;3026;53.612;7.278;2023-04-10T00:01:10;102215.88;;;8.87;100.00
5996;BME280;3026;53.612;7.278;2023-04-10T00:03:36;102207.84;;;8.86;100.00
5996;BME280;3026;53.612;7.278;2023-04-10T00:06:04;102199.94;;;8.83;100.00
5996;BME280;3026;53.612;7.278;2023-04-10T00:08:31;102197.47;;;8.80;100.00
5996;BME280;3026;53.612;7.278;2023-04-10T00:10:58;102196.00;;;8.75;100.00
5996;BME280;3026;53.612;7.278;2023-04-10T00:13:25;102201.44;;;8.75;100.00
5996;BME280;3026;53.612;7.278;2023-04-10T00:15:53;102190.56;;;8.75;100.00
5996;BME280;3026;53.612;7.278;2023-04-10T00:18:21;102189.97;;;8.72;100.00
5996;BME280;3026;53.612;7.278;2023-04-10T00:20:47;102183.03;;;8.68;100.00
5996;BME280;3026;53.612;7.278;2023-04-10T00:23:14;102178.97;;;8.62;100.00
5996;BME280;3026;53.612;7.278;2023-04-10T00:25:41;102182.97;;;8.58;100.00
5996;BME280;3026;53.612;7.278;2023-04-10T00:28:08;102176.03;;;8.54;100.00
5996;BME280;3026;53.612;7.278;2023-04-10T00:30:35;102183.72;;;8.49;100.00
5996;BME280;3026;53.612;7.278;2023-04-10T00:33:03;102181.00;;;8.49;100.00
5996;BME280;3026;53.612;7.278;2023-04-10T00:35:30;102164.44;;;8.41;100.00
5996;BME280;3026;53.612;7.278;2023-04-10T00:37:56;102167.88;;;8.43;100.00
5996;BME280;3026;53.612;7.278;2023-04-10T00:40:24;102175.31;;;8.41;100.00
5996;BME280;3026;53.612;7.278;2023-04-10T00:42:50;102177.28;;;8.39;100.00
5996;BME280;3026;53.612;7.278;2023-04-10T00:45:17;102170.41;;;8.35;100.00
5996;BME280;3026;53.612;7.278;2023-04-10T00:47:45;102166.88;;;8.33;100.00
5996;BME280;3026;53.612;7.278;2023-04-10T00:50:13;102158.50;;;8.25;100.00
5996;BME280;3026;53.612;7.278;2023-04-10T00:52:40;102156.53;;;8.27;100.00
5996;BME280;3026;53.612;7.278;2023-04-10T00:55:08;102152.34;;;8.23;100.00
5996;BME280;3026;53.612;7.278;2023-04-10T00:57:36;102149.84;;;8.19;100.00
5996;BME280;3026;53.612;7.278;2023-04-10T01:00:04;102159.00;;;8.18;100.00
5996;BME280;3026;53.612;7.278;2023-04-10T01:02:31;102155.56;;;8.16;100.00
5996;BME280;3026;53.612;7.278;2023-04-10T01:04:57;102152.84;;;8.16;100.00
5996;BME280;3026;53.612;7.278;2023-04-10T01:07:34;102150.13;;;8.16;100.00
5996;BME280;3026;53.612;7.278;2023-04-10T01:10:13;102145.81;;;8.14;100.00
5996;BME280;3026;53.612;7.278;2023-04-10T01:12:52;102139.50;;;8.13;100.00
5996;BME280;3026;53.612;7.278;2023-04-10T01:15:22;102125.19;;;8.11;100.00
5996;BME280;3026;53.612;7.278;2023-04-10T01:17:55;102132.09;;;8.15;100.00
5996;BME280;3026;53.612;7.278;2023-04-10T01:20:23;102122.94;;;8.16;100.00
5996;BME280;3026;53.612;7.278;2023-04-10T01:23:11;102126.66;;;8.15;100.00
5996;BME280;3026;53.612;7.278;2023-04-10T01:25:47;102123.22;;;8.13;100.00
5996;BME280;3026;53.612;7.278;2023-04-10T01:28:52;102119.75;;;8.11;100.00
5996;BME280;3026;53.612;7.278;2023-04-10T01:31:22;102116.91;;;8.13;100.00
5996;BME280;3026;53.612;7.278;2023-04-10T01:33:56;102110.63;;;8.12;100.00
5996;BME280;3026;53.612;7.278;2023-04-10T01:36:26;102118.03;;;8.10;100.00
5996;BME280;3026;53.612;7.278;2023-04-10T01:38:55;102110.84;;;8.09;100.00
5996;BME280;3026;53.612;7.278;2023-04-10T01:41:23;102107.16;;;8.10;100.00
5996;BME280;3026;53.612;7.278;2023-04-10T01:43:54;102099.97;;;8.09;100.00
5996;BME280;3026;53.612;7.278;2023-04-10T01:46:22;102099.25;;;8.07;100.00
5996;BME280;3026;53.612;7.278;2023-04-10T01:48:50;102099.25;;;8.07;100.00
5996;BME280;3026;53.612;7.278;2023-04-10T01:51:19;102096.78;;;8.04;100.00
5996;BME280;3026;53.612;7.278;2023-04-10T01:53:47;102103.94;;;8.05;100.00
5996;BME280;3026;53.612;7.278;2023-04-10T01:56:15;102105.94;;;8.03;100.00
5996;BME280;3026;53.612;7.278;2023-04-10T01:58:42;102090.63;;;8.02;100.00
5996;BME280;3026;53.612;7.278;2023-04-10T02:01:17;102091.75;;;8.00;100.00
5996;BME280;3026;53.612;7.278;2023-04-10T02:03:44;102086.41;;;7.98;100.00
5996;BME280;3026;53.612;7.278;2023-04-10T02:06:14;102079.25;;;7.97;100.00
5996;BME280;3026;53.612;7.278;2023-04-10T02:08:50;102077.53;;;7.96;100.00
5996;BME280;3026;53.612;7.278;2023-04-10T02:11:25;102079.50;;;7.94;100.00
5996;BME280;3026;53.612;7.278;2023-04-10T02:13:59;102076.06;;;7.92;100.00
5996;BME280;3026;53.612;7.278;2023-04-10T02:16:29;102079.78;;;7.91;100.00
5996;BME280;3026;53.612;7.278;2023-04-10T02:18:58;102076.31;;;7.89;100.00
5996;BME280;3026;53.612;7.278;2023-04-10T02:21:26;102069.16;;;7.88;100.00
5996;BME280;3026;53.612;7.278;2023-04-10T02:23:55;102062.25;;;7.84;100.00
5996;BME280;3026;53.612;7.278;2023-04-10T02:26:22;102068.66;;;7.83;100.00
5996;BME280;3026;53.612;7.278;2023-04-10T02:28:49;102065.94;;;7.83;100.00
5996;BME280;3026;53.612;7.278;2023-04-10T02:31:16;102057.94;;;7.81;100.00
5996;BME280;3026;53.612;7.278;2023-04-10T02:33:44;102057.31;;;7.78;100.00
5996;BME280;3026;53.612;7.278;2023-04-10T02:36:11;102061.03;;;7.77;100.00
5996;BME280;3026;53.612;7.278;2023-04-10T02:38:38;102046.69;;;7.75;100.00
5996;BME280;3026;53.612;7.278;2023-04-10T02:41:05;102049.41;;;7.75;100.00
5996;BME280;3026;53.612;7.278;2023-04-10T02:43:32;102055.09;;;7.72;100.00
5996;BME280;3026;53.612;7.278;2023-04-10T02:45:59;102049.91;;;7.69;100.00
5996;BME280;3026;53.612;7.278;2023-04-10T02:48:26;102042.91;;;7.66;100.00
5996;BME280;3026;53.612;7.278;2023-04-10T02:50:56;102043.97;;;7.64;100.00
5996;BME280;3026;53.612;7.278;2023-04-10T02:53:23;102045.97;;;7.61;100.00
5996;BME280;3026;53.612;7.278;2023-04-10T02:55:51;102040.53;;;7.61;100.00
5996;BME280;3026;53.612;7.278;2023-04-10T02:58:19;102027.47;;;7.55;100.00
5996;BME280;3026;53.612;7.278;2023-04-10T03:00:47;102021.31;;;7.53;100.00
5996;BME280;3026;53.612;7.278;2023-04-10T03:03:15;102026.47;;;7.56;100.00
5996;BME280;3026;53.612;7.278;2023-04-10T03:05:42;102028.69;;;7.51;100.00
5996;BME280;3026;53.612;7.278;2023-04-10T03:08:12;102033.63;;;7.57;100.00
5996;BME280;3026;53.612;7.278;2023-04-10T03:10:41;102027.69;;;7.52;100.00
5996;BME280;3026;53.612;7.278;2023-04-10T03:13:08;102023.25;;;7.51;100.00
5996;BME280;3026;53.612;7.278;2023-04-10T03:15:35;102027.69;;;7.52;100.00
5996;BME280;3026;53.612;7.278;2023-04-10T03:18:02;102035.75;;;7.54;100.00
5996;BME280;3026;53.612;7.278;2023-04-10T03:20:30;102034.13;;;7.51;100.00
5996;BME280;3026;53.612;7.278;2023-04-10T03:22:56;102034.13;;;7.51;100.00
5996;BME280;3026;53.612;7.278;2023-04-10T03:25:25;102023.53;;;7.48;100.00
5996;BME280;3026;53.612;7.278;2023-04-10T03:27:52;102029.19;;;7.45;100.00
5996;BME280;3026;53.612;7.278;2023-04-10T03:30:18;102026.97;;;7.50;100.00
5996;BME280;3026;53.612;7.278;2023-04-10T03:32:45;102019.06;;;7.47;100.00
5996;BME280;3026;53.612;7.278;2023-04-10T03:35:12;102019.81;;;7.49;100.00
5996;BME280;3026;53.612;7.278;2023-04-10T03:37:39;102018.81;;;7.50;100.00
5996;BME280;3026;53.612;7.278;2023-04-10T03:40:08;102017.09;;;7.49;100.00
5996;BME280;3026;53.612;7.278;2023-04-10T03:42:36;102008.22;;;7.47;100.00
5996;BME280;3026;53.612;7.278;2023-04-10T03:45:04;102013.78;;;7.46;100.00
5996;BME280;3026;53.612;7.278;2023-04-10T03:47:31;102000.34;;;7.44;100.00
5996;BME280;3026;53.612;7.278;2023-04-10T03:49:58;102007.50;;;7.45;100.00
5996;BME280;3026;53.612;7.278;2023-04-10T03:52:25;102018.34;;;7.45;100.00
5996;BME280;3026;53.612;7.278;2023-04-10T03:54:53;101991.69;;;7.39;100.00
5996;BME280;3026;53.612;7.278;2023-04-10T03:57:20;101992.56;;;7.40;100.00
5996;BME280;3026;53.612;7.278;2023-04-10T03:59:48;102002.31;;;7.42;100.00
5996;BME280;3026;53.612;7.278;2023-04-10T04:02:16;101987.97;;;7.40;100.00
5996;BME280;3026;53.612;7.278;2023-04-10T04:04:42;101987.97;;;7.40;100.00
5996;BME280;3026;53.612;7.278;2023-04-10T04:07:09;101997.38;;;7.36;100.00
5996;BME280;3026;53.612;7.278;2023-04-10T04:09:38;101989.09;;;7.38;100.00
5996;BME280;3026;53.612;7.278;2023-04-10T04:12:05;101989.97;;;7.38;100.00
5996;BME280;3026;53.612;7.278;2023-04-10T04:14:32;101988.50;;;7.34;100.00
5996;BME280;3026;53.612;7.278;2023-04-10T04:17:00;101988.25;;;7.37;100.00
5996;BME280;3026;53.612;7.278;2023-04-10T04:19:27;101981.09;;;7.36;100.00
5996;BME280;3026;53.612;7.278;2023-04-10T04:21:54;101985.66;;;7.36;100.00
5996;BME280;3026;53.612;7.278;2023-04-10T04:24:20;101985.78;;;7.34;100.00
5996;BME280;3026;53.612;7.278;2023-04-10T04:26:47;101970.50;;;7.33;100.00
5996;BME280;3026;53.612;7.278;2023-04-10T04:29:14;101968.78;;;7.32;100.00
5996;BME280;3026;53.612;7.278;2023-04-10T04:31:41;101951.75;;;7.30;100.00
5996;BME280;3026;53.612;7.278;2023-04-10T04:34:09;101941.88;;;7.29;100.00
5996;BME280;3026;53.612;7.278;2023-04-10T04:36:36;101933.00;;;7.27;100.00
5996;BME280;3026;53.612;7.278;2023-04-10T04:39:03;101943.63;;;7.30;100.00
5996;BME280;3026;53.612;7.278;2023-04-10T04:41:30;101932.75;;;7.30;100.00
5996;BME280;3026;53.612;7.278;2023-04-10T04:43:57;101933.63;;;7.30;100.00
5996;BME280;3026;53.612;7.278;2023-04-10T04:46:23;101927.34;;;7.30;100.00
5996;BME280;3026;53.612;7.278;2023-04-10T04:48:50;101927.34;;;7.30;100.00
5996;BME280;3026;53.612;7.278;2023-04-10T04:51:18;101919.06;;;7.31;100.00
5996;BME280;3026;53.612;7.278;2023-04-10T04:53:45;101910.81;;;7.33;100.00
5996;BME280;3026;53.612;7.278;2023-04-10T04:56:12;101920.53;;;7.36;100.00
5996;BME280;3026;53.612;7.278;2023-04-10T04:58:39;101926.56;;;7.39;100.00
5996;BME280;3026;53.612;7.278;2023-04-10T05:01:06;101909.41;;;7.39;100.00
5996;BME280;3026;53.612;7.278;2023-04-10T05:03:33;101903.75;;;7.42;100.00
5996;BME280;3026;53.612;7.278;2023-04-10T05:06:00;101906.34;;;7.43;100.00
5996;BME280;3026;53.612;7.278;2023-04-10T05:08:28;101916.09;;;7.46;100.00
5996;BME280;3026;53.612;7.278;2023-04-10T05:10:55;101905.22;;;7.46;100.00
5996;BME280;3026;53.612;7.278;2023-04-10T05:13:22;101909.53;;;7.48;100.00
5996;BME280;3026;53.612;7.278;2023-04-10T05:15:49;101898.69;;;7.48;100.00
5996;BME280;3026;53.612;7.278;2023-04-10T05:18:16;101900.41;;;7.49;100.00
5996;BME280;3026;53.612;7.278;2023-04-10T05:20:45;101903.63;;;7.54;100.00
5996;BME280;3026;53.612;7.278;2023-04-10T05:23:12;101910.75;;;7.55;100.00
5996;BME280;3026;53.612;7.278;2023-04-10T05:25:40;101903.34;;;7.57;100.00
5996;BME280;3026;53.612;7.278;2023-04-10T05:28:08;101909.38;;;7.61;100.00
5996;BME280;3026;53.612;7.278;2023-04-10T05:30:35;101910.22;;;7.61;100.00
5996;BME280;3026;53.612;7.278;2023-04-10T05:33:01;101899.63;;;7.58;100.00
5996;BME280;3026;53.612;7.278;2023-04-10T05:35:28;101902.81;;;7.64;100.00
5996;BME280;3026;53.612;7.278;2023-04-10T05:37:55;101911.47;;;7.69;100.00
5996;BME280;3026;53.612;7.278;2023-04-10T05:40:23;101905.03;;;7.70;100.00
5996;BME280;3026;53.612;7.278;2023-04-10T05:42:52;101906.75;;;7.71;100.00
5996;BME280;3026;53.612;7.278;2023-04-10T05:45:18;101917.34;;;7.74;100.00
5996;BME280;3026;53.612;7.278;2023-04-10T05:47:45;101918.13;;;7.76;100.00
5996;BME280;3026;53.612;7.278;2023-04-10T05:50:12;101910.94;;;7.75;100.00
5996;BME280;3026;53.612;7.278;2023-04-10T05:52:39;101910.69;;;7.78;100.00
5996;BME280;3026;53.612;7.278;2023-04-10T05:55:07;101907.00;;;7.79;100.00
5996;BME280;3026;53.612;7.278;2023-04-10T05:57:34;101910.16;;;7.84;100.00
5996;BME280;3026;53.612;7.278;2023-04-10T06:00:04;101914.47;;;7.86;100.00
5996;BME280;3026;53.612;7.278;2023-04-10T06:02:31;101911.38;;;7.91;100.00
5996;BME280;3026;53.612;7.278;2023-04-10T06:04:58;101909.13;;;7.96;100.00
5996;BME280;3026;53.612;7.278;2023-04-10T06:07:25;101915.28;;;7.98;100.00
5996;BME280;3026;53.612;7.278;2023-04-10T06:09:53;101908.63;;;8.02;100.00
5996;BME280;3026;53.612;7.278;2023-04-10T06:12:19;101910.56;;;8.11;100.00
5996;BME280;3026;53.612;7.278;2023-04-10T06:14:46;101899.31;;;8.16;100.00
5996;BME280;3026;53.612;7.278;2023-04-10T06:17:14;101910.50;;;8.23;100.00
5996;BME280;3026;53.612;7.278;2023-04-10T06:19:41;101901.09;;;8.27;100.00
5996;BME280;3026;53.612;7.278;2023-04-10T06:22:08;101904.06;;;8.35;100.00
5996;BME280;3026;53.612;7.278;2023-04-10T06:24:35;101887.19;;;8.41;100.00
5996;BME280;3026;53.612;7.278;2023-04-10T06:27:02;101892.13;;;8.47;100.00
5996;BME280;3026;53.612;7.278;2023-04-10T06:29:28;101871.81;;;8.51;100.00
5996;BME280;3026;53.612;7.278;2023-04-10T06:31:55;101875.59;;;8.60;100.00
5996;BME280;3026;53.612;7.278;2023-04-10T06:34:23;101879.63;;;8.65;100.00
5996;BME280;3026;53.612;7.278;2023-04-10T06:36:50;101879.09;;;8.71;100.00
5996;BME280;3026;53.612;7.278;2023-04-10T06:39:18;101866.66;;;8.78;100.00
5996;BME280;3026;53.612;7.278;2023-04-10T06:41:45;101861.69;;;8.84;100.00
5996;BME280;3026;53.612;7.278;2023-04-10T06:44:12;101872.75;;;8.92;100.00
5996;BME280;3026;53.612;7.278;2023-04-10T06:46:39;101872.19;;;8.98;100.00
5996;BME280;3026;53.612;7.278;2023-04-10T06:49:05;101856.34;;;9.03;100.00
5996;BME280;3026;53.612;7.278;2023-04-10T06:51:34;101861.22;;;9.09;100.00
5996;BME280;3026;53.612;7.278;2023-04-10T06:54:00;101853.22;;;9.17;100.00
5996;BME280;3026;53.612;7.278;2023-04-10T06:56:27;101850.66;;;9.25;100.00
5996;BME280;3026;53.612;7.278;2023-04-10T06:58:54;101852.38;;;9.36;100.00
5996;BME280;3026;53.612;7.278;2023-04-10T07:01:22;101861.44;;;9.46;100.00
5996;BME280;3026;53.612;7.278;2023-04-10T07:03:48;101855.00;;;9.57;100.00
5996;BME280;3026;53.612;7.278;2023-04-10T07:06:15;101853.88;;;9.69;100.00
5996;BME280;3026;53.612;7.278;2023-04-10T07:08:43;101860.19;;;9.79;100.00
5996;BME280;3026;53.612;7.278;2023-04-10T07:11:10;101853.88;;;9.88;100.00
5996;BME280;3026;53.612;7.278;2023-04-10T07:13:37;101858.47;;;9.98;100.00
5996;BME280;3026;53.612;7.278;2023-04-10T07:16:05;101852.13;;;10.07;100.00
5996;BME280;3026;53.612;7.278;2023-04-10T07:18:32;101854.72;;;10.18;100.00
5996;BME280;3026;53.612;7.278;2023-04-10T07:20:59;101837.81;;;10.24;100.00
5996;BME280;3026;53.612;7.278;2023-04-10T07:23:26;101840.69;;;10.32;100.00
5996;BME280;3026;53.612;7.278;2023-04-10T07:25:55;101843.50;;;10.40;100.00
5996;BME280;3026;53.612;7.278;2023-04-10T07:28:22;101844.34;;;10.50;100.00
5996;BME280;3026;53.612;7.278;2023-04-10T07:30:49;101834.28;;;10.61;100.00
5996;BME280;3026;53.612;7.278;2023-04-10T07:33:16;101833.41;;;10.70;100.00
5996;BME280;3026;53.612;7.278;2023-04-10T07:35:43;101830.78;;;10.78;100.00
5996;BME280;3026;53.612;7.278;2023-04-10T07:38:10;101826.44;;;10.85;100.00
5996;BME280;3026;53.612;7.278;2023-04-10T07:40:37;101824.81;;;10.92;100.00
5996;BME280;3026;53.612;7.278;2023-04-10T07:43:05;101814.31;;;10.97;100.00
5996;BME280;3026;53.612;7.278;2023-04-10T07:45:32;101815.75;;;11.01;100.00
5996;BME280;3026;53.612;7.278;2023-04-10T07:47:59;101806.22;;;11.05;100.00
5996;BME280;3026;53.612;7.278;2023-04-10T07:50:27;101801.16;;;11.10;100.00
5996;BME280;3026;53.612;7.278;2023-04-10T07:52:54;101787.75;;;11.17;100.00
5996;BME280;3026;53.612;7.278;2023-04-10T07:55:21;101791.84;;;11.31;100.00
5996;BME280;3026;53.612;7.278;2023-04-10T07:57:48;101779.28;;;11.38;100.00
5996;BME280;3026;53.612;7.278;2023-04-10T08:00:18;101773.44;;;11.51;100.00
5996;BME280;3026;53.612;7.278;2023-04-10T08:02:45;101767.25;;;11.66;100.00
5996;BME280;3026;53.612;7.278;2023-04-10T08:05:12;101765.00;;;11.80;100.00
5996;BME280;3026;53.612;7.278;2023-04-10T08:07:38;101751.50;;;11.96;100.00
5996;BME280;3026;53.612;7.278;2023-04-10T08:10:06;101754.38;;;12.20;100.00
5996;BME280;3026;53.612;7.278;2023-04-10T08:12:33;101750.72;;;12.38;100.00
5996;BME280;3026;53.612;7.278;2023-04-10T08:15:00;101751.50;;;12.56;100.00
5996;BME280;3026;53.612;7.278;2023-04-10T08:17:28;101743.69;;;12.69;100.00
5996;BME280;3026;53.612;7.278;2023-04-10T08:19:55;101736.91;;;12.81;100.00
5996;BME280;3026;53.612;7.278;2023-04-10T08:22:22;101730.09;;;12.94;100.00
5996;BME280;3026;53.612;7.278;2023-04-10T08:24:48;101731.88;;;13.11;100.00
5996;BME280;3026;53.612;7.278;2023-04-10T08:27:15;101721.66;;;13.21;100.00
5996;BME280;3026;53.612;7.278;2023-04-10T08:29:42;101723.22;;;13.32;100.00
5996;BME280;3026;53.612;7.278;2023-04-10T08:32:09;101727.84;;;13.39;100.00
5996;BME280;3026;53.612;7.278;2023-04-10T08:34:37;101714.50;;;13.45;100.00
5996;BME280;3026;53.612;7.278;2023-04-10T08:37:05;101725.13;;;13.56;100.00
5996;BME280;3026;53.612;7.278;2023-04-10T08:39:34;101699.59;;;13.63;100.00
5996;BME280;3026;53.612;7.278;2023-04-10T08:42:01;101703.38;;;13.79;100.00
5996;BME280;3026;53.612;7.278;2023-04-10T08:44:28;101702.47;;;13.86;100.00
5996;BME280;3026;53.612;7.278;2023-04-10T08:46:57;101689.09;;;13.99;100.00
5996;BME280;3026;53.612;7.278;2023-04-10T08:49:30;101689.75;;;14.10;100.00
5996;BME280;3026;53.612;7.278;2023-04-10T08:52:07;101688.88;;;14.25;100.00
5996;BME280;3026;53.612;7.278;2023-04-10T08:54:37;101693.13;;;14.44;100.00
5996;BME280;3026;53.612;7.278;2023-04-10T08:57:06;101676.13;;;14.49;98.91
5996;BME280;3026;53.612;7.278;2023-04-10T08:59:33;101683.44;;;14.65;98.69
5996;BME280;3026;53.612;7.278;2023-04-10T09:02:00;101682.72;;;14.71;96.29
5996;BME280;3026;53.612;7.278;2023-04-10T09:04:27;101684.38;;;14.80;95.62
5996;BME280;3026;53.612;7.278;2023-04-10T09:06:53;101670.31;;;14.83;94.20
5996;BME280;3026;53.612;7.278;2023-04-10T09:09:22;101667.19;;;14.86;93.88
5996;BME280;3026;53.612;7.278;2023-04-10T09:11:55;101667.50;;;14.91;93.13
5996;BME280;3026;53.612;7.278;2023-04-10T09:14:25;101666.78;;;14.97;92.87
5996;BME280;3026;53.612;7.278;2023-04-10T09:16:53;101660.88;;;15.08;92.96
5996;BME280;3026;53.612;7.278;2023-04-10T09:19:28;101656.28;;;15.24;92.01
5996;BME280;3026;53.612;7.278;2023-04-10T09:21:56;101644.19;;;15.33;91.34
5996;BME280;3026;53.612;7.278;2023-04-10T09:24:25;101651.03;;;15.37;90.57
5996;BME280;3026;53.612;7.278;2023-04-10T09:26:52;101647.56;;;15.43;89.46
5996;BME280;3026;53.612;7.278;2023-04-10T09:29:21;101646.13;;;15.47;89.18
5996;BME280;3026;53.612;7.278;2023-04-10T09:31:49;101635.13;;;15.47;87.45
5996;BME280;3026;53.612;7.278;2023-04-10T09:34:17;101628.97;;;15.45;87.46
5996;BME280;3026;53.612;7.278;2023-04-10T09:36:52;101635.72;;;15.57;87.82
5996;BME280;3026;53.612;7.278;2023-04-10T09:39:19;101624.31;;;15.68;87.58
5996;BME280;3026;53.612;7.278;2023-04-10T09:41:49;101626.34;;;15.74;87.06
5996;BME280;3026;53.612;7.278;2023-04-10T09:44:18;101630.94;;;15.74;85.98
5996;BME280;3026;53.612;7.278;2023-04-10T09:46:45;101619.47;;;15.70;85.29
5996;BME280;3026;53.612;7.278;2023-04-10T09:49:14;101607.75;;;15.77;84.83
5996;BME280;3026;53.612;7.278;2023-04-10T09:51:40;101620.44;;;15.78;84.27
5996;BME280;3026;53.612;7.278;2023-04-10T09:54:08;101617.97;;;15.83;82.76
5996;BME280;3026;53.612;7.278;2023-04-10T09:56:37;101614.00;;;15.85;81.87
5996;BME280;3026;53.612;7.278;2023-04-10T09:59:06;101590.09;;;15.86;81.83
5996;BME280;3026;53.612;7.278;2023-04-10T10:01:36;101593.72;;;16.01;81.27
5996;BME280;3026;53.612;7.278;2023-04-10T10:04:06;101585.00;;;16.12;81.12
5996;BME280;3026;53.612;7.278;2023-04-10T10:06:33;101576.72;;;16.12;80.09
5996;BME280;3026;53.612;7.278;2023-04-10T10:09:02;101584.50;;;16.23;80.50
5996;BME280;3026;53.612;7.278;2023-04-10T10:11:32;101575.47;;;16.29;79.88
5996;BME280;3026;53.612;7.278;2023-04-10T10:14:02;101576.13;;;16.31;79.77
5996;BME280;3026;53.612;7.278;2023-04-10T10:16:35;101555.16;;;16.30;79.25
5996;BME280;3026;53.612;7.278;2023-04-10T10:19:08;101558.59;;;16.32;78.53
5996;BME280;3026;53.612;7.278;2023-04-10T10:21:39;101561.69;;;16.29;78.21
5996;BME280;3026;53.612;7.278;2023-04-10T10:24:08;101557.63;;;16.25;77.61
5996;BME280;3026;53.612;7.278;2023-04-10T10:26:37;101548.34;;;16.26;77.49
5996;BME280;3026;53.612;7.278;2023-04-10T10:29:06;101523.47;;;16.34;77.59
5996;BME280;3026;53.612;7.278;2023-04-10T10:31:36;101520.19;;;16.46;77.43
5996;BME280;3026;53.612;7.278;2023-04-10T10:34:04;101524.19;;;16.64;75.95
5996;BME280;3026;53.612;7.278;2023-04-10T10:36:33;101500.28;;;16.65;74.76
5996;BME280;3026;53.612;7.278;2023-04-10T10:39:20;101498.56;;;16.64;74.27
5996;BME280;3026;53.612;7.278;2023-04-10T10:41:50;101487.00;;;16.69;74.74
5996;BME280;3026;53.612;7.278;2023-04-10T10:44:27;101477.94;;;16.75;75.05
5996;BME280;3026;53.612;7.278;2023-04-10T10:47:05;101467.25;;;16.86;74.59
5996;BME280;3026;53.612;7.278;2023-04-10T10:49:52;101460.97;;;16.92;71.97
5996;BME280;3026;53.612;7.278;2023-04-10T10:52:42;101451.44;;;16.95;72.96
5996;BME280;3026;53.612;7.278;2023-04-10T10:55:32;101440.84;;;16.99;71.85
5996;BME280;3026;53.612;7.278;2023-04-10T10:58:06;101458.03;;;17.01;72.61
5996;BME280;3026;53.612;7.278;2023-04-10T11:01:03;101451.09;;;17.05;71.30
5996;BME280;3026;53.612;7.278;2023-04-10T11:03:31;101434.38;;;17.13;72.66
5996;BME280;3026;53.612;7.278;2023-04-10T11:05:59;101434.44;;;17.19;72.37
5996;BME280;3026;53.612;7.278;2023-04-10T11:08:37;101424.75;;;17.30;71.32
5996;BME280;3026;53.612;7.278;2023-04-10T11:11:07;101420.59;;;17.47;71.47
5996;BME280;3026;53.612;7.278;2023-04-10T11:13:36;101431.72;;;17.61;70.71
5996;BME280;3026;53.612;7.278;2023-04-10T11:16:05;101422.91;;;17.72;70.21
5996;BME280;3026;53.612;7.278;2023-04-10T11:19:01;101407.00;;;17.74;67.96
5996;BME280;3026;53.612;7.278;2023-04-10T11:21:29;101408.06;;;17.73;69.34
5996;BME280;3026;53.612;7.278;2023-04-10T11:24:04;101403.59;;;17.72;68.59
5996;BME280;3026;53.612;7.278;2023-04-10T11:26:38;101395.31;;;17.72;69.02
5996;BME280;3026;53.612;7.278;2023-04-10T11:29:06;101390.22;;;17.75;68.66
5996;BME280;3026;53.612;7.278;2023-04-10T11:31:55;101388.06;;;17.71;68.61
5996;BME280;3026;53.612;7.278;2023-04-10T11:34:24;101375.75;;;17.67;68.68
5996;BME280;3026;53.612;7.278;2023-04-10T11:36:52;101377.94;;;17.71;69.22
5996;BME280;3026;53.612;7.278;2023-04-10T11:39:19;101364.69;;;17.67;68.96
5996;BME280;3026;53.612;7.278;2023-04-10T11:41:47;101364.50;;;17.62;68.46
5996;BME280;3026;53.612;7.278;2023-04-10T11:44:16;101361.69;;;17.48;68.00
5996;BME280;3026;53.612;7.278;2023-04-10T11:46:46;101350.97;;;17.32;67.86
5996;BME280;3026;53.612;7.278;2023-04-10T11:49:17;101356.50;;;17.32;69.10
5996;BME280;3026;53.612;7.278;2023-04-10T11:51:48;101350.75;;;17.27;68.44
5996;BME280;3026;53.612;7.278;2023-04-10T11:54:16;101348.81;;;17.21;68.74
5996;BME280;3026;53.612;7.278;2023-04-10T11:56:44;101337.78;;;17.21;69.08
5996;BME280;3026;53.612;7.278;2023-04-10T11:59:11;101341.38;;;17.15;68.78
5996;BME280;3026;53.612;7.278;2023-04-10T12:01:40;101326.28;;;17.11;69.10
5996;BME280;3026;53.612;7.278;2023-04-10T12:04:14;101313.56;;;17.10;68.53
5996;BME280;3026;53.612;7.278;2023-04-10T12:06:43;101330.50;;;17.07;68.19
5996;BME280;3026;53.612;7.278;2023-04-10T12:09:17;101322.66;;;17.04;67.31
5996;BME280;3026;53.612;7.278;2023-04-10T12:11:48;101316.09;;;17.05;67.54
5996;BME280;3026;53.612;7.278;2023-04-10T12:14:16;101313.72;;;17.02;67.82
5996;BME280;3026;53.612;7.278;2023-04-10T12:16:43;101303.31;;;16.97;67.42
5996;BME280;3026;53.612;7.278;2023-04-10T12:19:10;101298.66;;;16.98;67.84
5996;BME280;3026;53.612;7.278;2023-04-10T12:21:38;101318.44;;;17.08;68.74
5996;BME280;3026;53.612;7.278;2023-04-10T12:24:06;101289.81;;;17.09;67.91
5996;BME280;3026;53.612;7.278;2023-04-10T12:26:34;101302.59;;;17.16;67.89
5996;BME280;3026;53.612;7.278;2023-04-10T12:29:02;101294.97;;;17.18;68.14
5996;BME280;3026;53.612;7.278;2023-04-10T12:31:33;101283.09;;;17.18;67.20
5996;BME280;3026;53.612;7.278;2023-04-10T12:34:01;101280.75;;;17.15;66.81
5996;BME280;3026;53.612;7.278;2023-04-10T12:36:29;101272.06;;;17.18;66.88
5996;BME280;3026;53.612;7.278;2023-04-10T12:38:57;101281.38;;;17.17;66.79
5996;BME280;3026;53.612;7.278;2023-04-10T12:41:25;101279.69;;;17.16;66.57
5996;BME280;3026;53.612;7.278;2023-04-10T12:44:05;101276.28;;;17.14;66.00
5996;BME280;3026;53.612;7.278;2023-04-10T12:46:33;101261.47;;;17.15;66.16
5996;BME280;3026;53.612;7.278;2023-04-10T12:49:08;101263.16;;;17.16;66.16
5996;BME280;3026;53.612;7.278;2023-04-10T12:51:46;101264.44;;;17.20;66.08
5996;BME280;3026;53.612;7.278;2023-04-10T12:54:26;101260.88;;;17.26;65.82
5996;BME280;3026;53.612;7.278;2023-04-10T12:56:53;101250.06;;;17.31;65.67
5996;BME280;3026;53.612;7.278;2023-04-10T12:59:23;101253.91;;;17.43;65.47
5996;BME280;3026;53.612;7.278;2023-04-10T13:01:50;101265.59;;;17.59;65.33
5996;BME280;3026;53.612;7.278;2023-04-10T13:04:17;101255.25;;;17.67;65.18
5996;BME280;3026;53.612;7.278;2023-04-10T13:06:45;101254.03;;;17.76;65.03
5996;BME280;3026;53.612;7.278;2023-04-10T13:09:13;101234.94;;;17.88;65.09
5996;BME280;3026;53.612;7.278;2023-04-10T13:11:41;101229.84;;;17.98;64.76
5996;BME280;3026;53.612;7.278;2023-04-10T13:14:08;101229.84;;;18.12;64.32
5996;BME280;3026;53.612;7.278;2023-04-10T13:16:37;101222.63;;;18.11;63.61
5996;BME280;3026;53.612;7.278;2023-04-10T13:19:03;101198.44;;;17.99;64.43